Mont Saint Michel — FNMT — position and weather

sailwx.info

Track history (hours):
 
Tides and Currents Weather Stations Pressure Air Temp Water Temp Dewpoint Dewpoint Depression Visibility Wind Speed Wind Dir Waves Ship Positions

Mont Saint Michel

Last reported at 2014-Jul-24 03:34 UTC. Time now 2014-Jul-24 04:27 UTC.
Position N 49°33' W 000°22'.

Length 173 m; beam 29 m.

Type: Ship. MMSI: 227023100.

Date/timePositionNaut miles runAvg speedWind from/ knotsBaromVisibWave heightAir tempDewpointWater temp
2014-Jul-24 03:34N 49°33' W 000°22'1716.7
2014-Jul-24 02:34N 49°49' W 000°32'1716.6
2014-Jul-24 01:31N 50°05' W 000°41'1816.9
2014-Jul-24 00:27N 50°22' W 000°51'1617.3
2014-Jul-23 23:34N 50°37' W 000°58'1312.8
2014-Jul-23 22:33N 50°48' W 001°07'1 0.9
2014-Jul-23 21:33N 50°49' W 001°06'0 0.0
2014-Jul-23 20:34N 50°49' W 001°06'5 4.9
2014-Jul-23 19:34N 50°44' W 001°04'1717.4
2014-Jul-23 18:33N 50°28' W 000°53'1918.8
2014-Jul-23 17:33N 50°10' W 000°42'1918.6
2014-Jul-23 16:33N 49°53' W 000°33'1918.7
2014-Jul-23 15:33N 49°35' W 000°23'1818.0
2014-Jul-23 14:33N 49°18' W 000°15'1 0.8
2014-Jul-23 13:34N 49°17' W 000°15'0 0.0
2014-Jul-23 12:34N 49°17' W 000°15'0 0.0
2014-Jul-23 11:33N 49°17' W 000°15'0 0.0
2014-Jul-23 10:33N 49°17' W 000°15'0 0.0
2014-Jul-23 09:33N 49°17' W 000°15'0 0.0
2014-Jul-23 08:33N 49°17' W 000°15'0 0.0
2014-Jul-23 07:34N 49°17' W 000°15'0 0.0
2014-Jul-23 06:33N 49°17' W 000°15'0 0.0
2014-Jul-23 05:33N 49°17' W 000°15'9 8.8
2014-Jul-23 04:33N 49°26' W 000°18'1313.2
2014-Jul-23 03:33N 49°38' W 000°24'1312.6
2014-Jul-23 02:33N 49°50' W 000°30'1712.2
2014-Jul-23 01:08N 50°07' W 000°40'1114.8
2014-Jul-23 00:25N 50°17' W 000°46'1416.8
2014-Jul-22 23:33N 50°30' W 000°54'1514.9
2014-Jul-22 22:34N 50°44' W 001°03'5 5.2
2014-Jul-22 21:34N 50°49' W 001°06'0 0.0
2014-Jul-22 20:34N 50°49' W 001°06'4 3.6
2014-Jul-22 19:34N 50°45' W 001°05'1919.4
2014-Jul-22 18:34N 50°27' W 000°53'2420.4
2014-Jul-22 17:24N 50°05' W 000°41'1719.9
2014-Jul-22 16:33N 49°49' W 000°31'2020.1
2014-Jul-22 15:34N 49°31' W 000°19'1413.9
2014-Jul-22 14:33N 49°17' W 000°15'0 0.0
2014-Jul-22 13:33N 49°17' W 000°15'2 2.2
2014-Jul-22 12:33N 49°20' W 000°14'2020.2
2014-Jul-22 11:34N 49°39' W 000°24'6020.0
2014-Jul-22 08:34N 50°35' W 000°56'1515.0
2014-Jul-22 07:33N 50°49' W 001°06'0 0.0
2014-Jul-22 06:33N 50°49' W 001°06'0 0.1
2014-Jul-22 05:34N 50°49' W 001°06'1313.3
2014-Jul-22 04:34N 50°36' W 000°58'1111.4
2014-Jul-22 03:34N 50°25' W 000°53'1211.4
2014-Jul-22 02:32N 50°14' W 000°49'1111.3
2014-Jul-22 01:32N 50°03' W 000°44'1111.7
2014-Jul-22 00:33N 49°52' W 000°38'1211.5
2014-Jul-21 23:33N 49°42' W 000°30'1111.1
2014-Jul-21 22:34N 49°32' W 000°22'1211.7
2014-Jul-21 21:34N 49°21' W 000°15'4 4.1
2014-Jul-21 20:33N 49°17' W 000°15'0 0.0
2014-Jul-21 20:18N 49°17' W 000°15'0 0.0
2014-Jul-21 19:33N 49°17' W 000°15'1212.3
2014-Jul-21 18:34N 49°29' W 000°20'1818.0
2014-Jul-21 17:33N 49°46' W 000°29'2819.4
2014-Jul-21 16:08N 50°12' W 000°45'1119.9
2014-Jul-21 15:33N 50°22' W 000°51'1919.3
2014-Jul-21 14:33N 50°41' W 000°58'9 8.9
2014-Jul-21 13:33N 50°49' W 001°06'0 0.0
2014-Jul-21 12:33N 50°49' W 001°06'5 4.7
2014-Jul-21 11:34N 50°44' W 001°04'2719.3
2014-Jul-21 10:10N 50°20' W 000°45'1219.4
2014-Jul-21 09:33N 50°09' W 000°41'2019.8
2014-Jul-21 08:33N 49°50' W 000°31'2019.9
2014-Jul-21 07:33N 49°31' W 000°20'1414.4
2014-Jul-21 06:34N 49°17' W 000°15'0 0.0
2014-Jul-21 05:34N 49°17' W 000°15'0 0.0
2014-Jul-21 04:34N 49°17' W 000°15'1414.1
2014-Jul-21 03:34N 49°31' W 000°21'1212.3
2014-Jul-21 02:34N 49°42' W 000°28'4915.9
2014-Jul-20 23:27N 50°29' W 000°53'1516.5
2014-Jul-20 22:34N 50°43' W 001°00'7 6.7
2014-Jul-20 21:33N 50°49' W 001°06'0 0.0
2014-Jul-20 20:33N 50°49' W 001°06'5 4.8
2014-Jul-20 19:34N 50°44' W 001°04'1919.5
2014-Jul-20 18:33N 50°27' W 000°50'1919.3
2014-Jul-20 17:33N 50°09' W 000°38'1919.5
2014-Jul-20 16:33N 49°50' W 000°30'1919.3
2014-Jul-20 15:33N 49°32' W 000°21'1514.9
2014-Jul-20 14:33N 49°17' W 000°15'0 0.0
2014-Jul-20 13:33N 49°17' W 000°15'2 2.3
2014-Jul-20 12:33N 49°20' W 000°14'2019.9
2014-Jul-20 11:33N 49°38' W 000°26'1919.3
2014-Jul-20 10:33N 49°56' W 000°36'2019.0
2014-Jul-20 09:31N 50°15' W 000°47'1819.2
2014-Jul-20 08:33N 50°32' W 000°57'1717.1
2014-Jul-20 07:33N 50°48' W 001°07'1 1.0
2014-Jul-20 06:33N 50°49' W 001°06'0 0.1
2014-Jul-20 05:34N 50°49' W 001°06'1212.2
2014-Jul-20 04:33N 50°37' W 000°58'2210.7
2014-Jul-20 02:29N 50°17' W 000°46'1011.2
2014-Jul-20 01:33N 50°06' W 000°43'1111.5
2014-Jul-20 00:33N 49°55' W 000°40'1111.1
2014-Jul-19 23:34N 49°45' W 000°35'1211.9
2014-Jul-19 22:34N 49°34' W 000°28'1312.6
2014-Jul-19 21:33N 49°23' W 000°17'6 6.0
2014-Jul-19 20:33N 49°17' W 000°15'0 0.0
2014-Jul-19 19:33N 49°17' W 000°15'1111.3
2014-Jul-19 18:33N 49°28' W 000°19'1919.5
2014-Jul-19 17:34N 49°46' W 000°29'4119.7
2014-Jul-19 15:28N 50°26' W 000°49'1719.1
2014-Jul-19 14:33N 50°42' W 001°00'8 7.9
2014-Jul-19 13:33N 50°49' W 001°06'0 0.0
2014-Jul-19 12:33N 50°49' W 001°06'5 5.2
2014-Jul-19 11:33N 50°44' W 001°03'2018.7
2014-Jul-19 10:31N 50°26' W 000°50'2019.5
2014-Jul-19 09:30N 50°07' W 000°41'1920.0
2014-Jul-19 08:33N 49°49' W 000°32'2120.9
2014-Jul-19 07:33N 49°30' W 000°20'1312.9
2014-Jul-19 06:33N 49°17' W 000°15'0 0.0
2014-Jul-19 05:33N 49°17' W 000°15'0 0.1
2014-Jul-19 04:33N 49°17' W 000°15'1717.0
2014-Jul-19 03:33N 49°34' W 000°19'1211.5
2014-Jul-19 02:33N 49°45' W 000°24'3114.7
2014-Jul-19 00:26N 50°14' W 000°41'1617.4
2014-Jul-18 23:30N 50°29' W 000°51'1516.0
2014-Jul-18 22:33N 50°43' W 001°01'7 6.5
2014-Jul-18 21:33N 50°49' W 001°06'0 0.0
2014-Jul-18 20:34N 50°49' W 001°06'6 5.6
2014-Jul-18 19:34N 50°43' W 001°03'1717.0
2014-Jul-18 18:33N 50°28' W 000°53'1919.3
2014-Jul-18 17:33N 50°10' W 000°42'2019.8
2014-Jul-18 16:33N 49°51' W 000°30'1919.4
2014-Jul-18 15:33N 49°33' W 000°20'1616.3
2014-Jul-18 14:33N 49°17' W 000°15'0 0.0
2014-Jul-18 13:33N 49°17' W 000°15'2 1.6
2014-Jul-18 12:33N 49°19' W 000°15'2019.6
2014-Jul-18 11:33N 49°38' W 000°24'2020.0
2014-Jul-18 10:33N 49°56' W 000°37'2019.8
2014-Jul-18 09:33N 50°14' W 000°47'2019.7
2014-Jul-18 08:33N 50°33' W 000°56'1716.5
2014-Jul-18 07:34N 50°48' W 001°07'1 0.8
2014-Jul-18 06:33N 50°49' W 001°06'0 0.1
2014-Jul-18 05:34N 50°49' W 001°06'1212.3
2014-Jul-18 04:34N 50°37' W 000°58'1615.8
2014-Jul-18 03:33N 50°23' W 000°50'1211.5
2014-Jul-18 02:33N 50°12' W 000°44'1111.2
2014-Jul-18 01:33N 50°01' W 000°38'1111.2
2014-Jul-18 00:33N 49°50' W 000°34'1110.7
2014-Jul-17 23:34N 49°40' W 000°28'1110.8
2014-Jul-17 22:33N 49°30' W 000°21'1111.5
2014-Jul-17 21:33N 49°20' W 000°14'2 2.3
2014-Jul-17 20:33N 49°17' W 000°15'0 0.0
2014-Jul-17 19:33N 49°17' W 000°15'1212.1
2014-Jul-17 18:33N 49°29' W 000°18'1919.2
2014-Jul-17 17:33N 49°47' W 000°28'1918.6
2014-Jul-17 16:33N 50°05' W 000°38'1918.6
2014-Jul-17 15:33N 50°23' W 000°46'1919.4
2014-Jul-17 14:33N 50°40' W 000°59'10 9.7
2014-Jul-17 13:34N 50°49' W 001°06'0 0.0
2014-Jul-17 12:34N 50°49' W 001°06'6 5.9
2014-Jul-17 11:34N 50°43' W 001°01'1919.1
2014-Jul-17 10:34N 50°26' W 000°51'2120.6
2014-Jul-17 09:34N 50°06' W 000°41'2120.6
2014-Jul-17 08:34N 49°46' W 000°30'2121.0
2014-Jul-17 07:34N 49°27' W 000°18'10 9.9
2014-Jul-17 06:33N 49°17' W 000°15'0 0.0
2014-Jul-17 05:34N 49°17' W 000°15'0 0.1
2014-Jul-17 04:33N 49°17' W 000°15'1514.6
2014-Jul-17 03:33N 49°32' W 000°18'1211.8
2014-Jul-17 02:33N 49°43' W 000°21'1515.1
2014-Jul-17 01:34N 49°58' W 000°27'1717.3
2014-Jul-17 00:34N 50°14' W 000°37'1817.6
2014-Jul-16 23:34N 50°29' W 000°51'1616.2
2014-Jul-16 22:34N 50°44' W 001°02'6 5.5
2014-Jul-16 21:34N 50°49' W 001°06'0 0.0
2014-Jul-16 20:33N 50°49' W 001°06'5 5.2
2014-Jul-16 19:34N 50°44' W 001°03'1918.7
2014-Jul-16 18:34N 50°27' W 000°51'2019.7
2014-Jul-16 17:34N 50°08' W 000°41'2020.3
2014-Jul-16 16:34N 49°49' W 000°30'2020.0
2014-Jul-16 15:34N 49°30' W 000°20'1313.2
2014-Jul-16 14:33N 49°17' W 000°15'0 0.0
2014-Jul-16 13:33N 49°17' W 000°15'0 0.0
2014-Jul-16 12:33N 49°17' W 000°15'0 0.0
2014-Jul-16 11:33N 49°17' W 000°15'0 0.0
2014-Jul-16 10:33N 49°17' W 000°15'0 0.0
2014-Jul-16 09:33N 49°17' W 000°15'0 0.0
2014-Jul-16 08:33N 49°17' W 000°15'0 0.0
2014-Jul-16 07:33N 49°17' W 000°15'0 0.0
2014-Jul-16 06:33N 49°17' W 000°15'0 0.0
2014-Jul-16 05:33N 49°17' W 000°15'1111.4
2014-Jul-16 04:34N 49°29' W 000°18'1110.9
2014-Jul-16 03:33N 49°39' W 000°24'1111.0
2014-Jul-16 02:33N 49°49' W 000°30'1211.7
2014-Jul-16 01:33N 49°60' W 000°37'1413.7
2014-Jul-16 00:34N 50°13' W 000°45'1616.1
2014-Jul-15 23:34N 50°28' W 000°52'1615.7
2014-Jul-15 22:33N 50°43' W 001°00'7 6.8
2014-Jul-15 21:33N 50°49' W 001°06'0 0.0
2014-Jul-15 20:33N 50°49' W 001°06'4 4.3
2014-Jul-15 19:34N 50°45' W 001°05'1918.6
2014-Jul-15 18:34N 50°29' W 000°49'2019.8
2014-Jul-15 17:34N 50°10' W 000°40'2020.3
2014-Jul-15 16:34N 49°50' W 000°31'2020.4
2014-Jul-15 15:33N 49°31' W 000°20'1414.2
2014-Jul-15 14:34N 49°17' W 000°15'0 0.0
2014-Jul-15 13:34N 49°17' W 000°15'2 1.6
2014-Jul-15 12:34N 49°19' W 000°15'2019.8
2014-Jul-15 11:34N 49°38' W 000°24'1919.4
2014-Jul-15 10:33N 49°57' W 000°31'2019.8
2014-Jul-15 09:34N 50°15' W 000°42'1919.4
2014-Jul-15 08:34N 50°33' W 000°52'1716.9
2014-Jul-15 07:34N 50°48' W 001°07'1 1.2
2014-Jul-15 06:33N 50°49' W 001°06'0 0.4
2014-Jul-15 05:33N 50°49' W 001°06'1212.3
2014-Jul-15 04:33N 50°37' W 000°58'1111.2
2014-Jul-15 03:33N 50°27' W 000°53'1111.2
2014-Jul-15 02:33N 50°16' W 000°46'1511.7
2014-Jul-15 01:15N 50°02' W 000°38'811.6
2014-Jul-15 00:33N 49°55' W 000°33'1111.3
2014-Jul-14 23:33N 49°44' W 000°27'1111.1
2014-Jul-14 22:33N 49°34' W 000°21'1110.9
2014-Jul-14 21:33N 49°24' W 000°14'6 6.3
2014-Jul-14 20:33N 49°17' W 000°15'0 0.0
2014-Jul-14 19:33N 49°17' W 000°15'1111.3
2014-Jul-14 18:33N 49°28' W 000°17'2019.8
2014-Jul-14 17:34N 49°46' W 000°31'2020.0
2014-Jul-14 16:33N 50°06' W 000°39'2020.4
2014-Jul-14 15:33N 50°25' W 000°50'2020.0
2014-Jul-14 14:33N 50°43' W 001°02'6 6.1
2014-Jul-14 13:33N 50°49' W 001°06'0 0.0
2014-Jul-14 12:34N 50°49' W 001°06'3 3.0
2014-Jul-14 11:34N 50°46' W 001°05'2019.8
2014-Jul-14 10:34N 50°28' W 000°52'4019.9
2014-Jul-14 08:34N 49°50' W 000°31'1919.2
2014-Jul-14 07:33N 49°32' W 000°21'1515.4
2014-Jul-14 06:34N 49°17' W 000°15'0 0.0
2014-Jul-14 05:34N 49°17' W 000°15'0 0.1
2014-Jul-14 04:33N 49°17' W 000°15'  
Track history (hours):
 
Tides and Currents Weather Stations Pressure Air Temp Water Temp Dewpoint Dewpoint Depression Visibility Wind Speed Wind Dir Waves Ship Positions

Mont Saint Michel

Last reported at 2014-Jul-24 03:34 UTC. Time now 2014-Jul-24 04:27 UTC.
Position N 49°33' W 000°22'.

Length 173 m; beam 29 m.

Type: Ship. MMSI: 227023100.

Date/timePositionNaut miles runAvg speedWind from/ knotsBaromVisibWave heightAir tempDewpointWater temp
2014-Jul-24 03:34N 49°33' W 000°22'1716.7
2014-Jul-24 02:34N 49°49' W 000°32'1716.6
2014-Jul-24 01:31N 50°05' W 000°41'1816.9
2014-Jul-24 00:27N 50°22' W 000°51'1617.3
2014-Jul-23 23:34N 50°37' W 000°58'1312.8
2014-Jul-23 22:33N 50°48' W 001°07'1 0.9
2014-Jul-23 21:33N 50°49' W 001°06'0 0.0
2014-Jul-23 20:34N 50°49' W 001°06'5 4.9
2014-Jul-23 19:34N 50°44' W 001°04'1717.4
2014-Jul-23 18:33N 50°28' W 000°53'1918.8
2014-Jul-23 17:33N 50°10' W 000°42'1918.6
2014-Jul-23 16:33N 49°53' W 000°33'1918.7
2014-Jul-23 15:33N 49°35' W 000°23'1818.0
2014-Jul-23 14:33N 49°18' W 000°15'1 0.8
2014-Jul-23 13:34N 49°17' W 000°15'0 0.0
2014-Jul-23 12:34N 49°17' W 000°15'0 0.0
2014-Jul-23 11:33N 49°17' W 000°15'0 0.0
2014-Jul-23 10:33N 49°17' W 000°15'0 0.0
2014-Jul-23 09:33N 49°17' W 000°15'0 0.0
2014-Jul-23 08:33N 49°17' W 000°15'0 0.0
2014-Jul-23 07:34N 49°17' W 000°15'0 0.0
2014-Jul-23 06:33N 49°17' W 000°15'0 0.0
2014-Jul-23 05:33N 49°17' W 000°15'9 8.8
2014-Jul-23 04:33N 49°26' W 000°18'1313.2
2014-Jul-23 03:33N 49°38' W 000°24'1312.6
2014-Jul-23 02:33N 49°50' W 000°30'1712.2
2014-Jul-23 01:08N 50°07' W 000°40'1114.8
2014-Jul-23 00:25N 50°17' W 000°46'1416.8
2014-Jul-22 23:33N 50°30' W 000°54'1514.9
2014-Jul-22 22:34N 50°44' W 001°03'5 5.2
2014-Jul-22 21:34N 50°49' W 001°06'0 0.0
2014-Jul-22 20:34N 50°49' W 001°06'4 3.6
2014-Jul-22 19:34N 50°45' W 001°05'1919.4
2014-Jul-22 18:34N 50°27' W 000°53'2420.4
2014-Jul-22 17:24N 50°05' W 000°41'1719.9
2014-Jul-22 16:33N 49°49' W 000°31'2020.1
2014-Jul-22 15:34N 49°31' W 000°19'1413.9
2014-Jul-22 14:33N 49°17' W 000°15'0 0.0
2014-Jul-22 13:33N 49°17' W 000°15'2 2.2
2014-Jul-22 12:33N 49°20' W 000°14'2020.2
2014-Jul-22 11:34N 49°39' W 000°24'6020.0
2014-Jul-22 08:34N 50°35' W 000°56'1515.0
2014-Jul-22 07:33N 50°49' W 001°06'0 0.0
2014-Jul-22 06:33N 50°49' W 001°06'0 0.1
2014-Jul-22 05:34N 50°49' W 001°06'1313.3
2014-Jul-22 04:34N 50°36' W 000°58'1111.4
2014-Jul-22 03:34N 50°25' W 000°53'1211.4
2014-Jul-22 02:32N 50°14' W 000°49'1111.3
2014-Jul-22 01:32N 50°03' W 000°44'1111.7
2014-Jul-22 00:33N 49°52' W 000°38'1211.5
2014-Jul-21 23:33N 49°42' W 000°30'1111.1
2014-Jul-21 22:34N 49°32' W 000°22'1211.7
2014-Jul-21 21:34N 49°21' W 000°15'4 4.1
2014-Jul-21 20:33N 49°17' W 000°15'0 0.0
2014-Jul-21 20:18N 49°17' W 000°15'0 0.0
2014-Jul-21 19:33N 49°17' W 000°15'1212.3
2014-Jul-21 18:34N 49°29' W 000°20'1818.0
2014-Jul-21 17:33N 49°46' W 000°29'2819.4
2014-Jul-21 16:08N 50°12' W 000°45'1119.9
2014-Jul-21 15:33N 50°22' W 000°51'1919.3
2014-Jul-21 14:33N 50°41' W 000°58'9 8.9
2014-Jul-21 13:33N 50°49' W 001°06'0 0.0
2014-Jul-21 12:33N 50°49' W 001°06'5 4.7
2014-Jul-21 11:34N 50°44' W 001°04'2719.3
2014-Jul-21 10:10N 50°20' W 000°45'1219.4
2014-Jul-21 09:33N 50°09' W 000°41'2019.8
2014-Jul-21 08:33N 49°50' W 000°31'2019.9
2014-Jul-21 07:33N 49°31' W 000°20'1414.4
2014-Jul-21 06:34N 49°17' W 000°15'0 0.0
2014-Jul-21 05:34N 49°17' W 000°15'0 0.0
2014-Jul-21 04:34N 49°17' W 000°15'1414.1
2014-Jul-21 03:34N 49°31' W 000°21'1212.3
2014-Jul-21 02:34N 49°42' W 000°28'4915.9
2014-Jul-20 23:27N 50°29' W 000°53'1516.5
2014-Jul-20 22:34N 50°43' W 001°00'7 6.7
2014-Jul-20 21:33N 50°49' W 001°06'0 0.0
2014-Jul-20 20:33N 50°49' W 001°06'5 4.8
2014-Jul-20 19:34N 50°44' W 001°04'1919.5
2014-Jul-20 18:33N 50°27' W 000°50'1919.3
2014-Jul-20 17:33N 50°09' W 000°38'1919.5
2014-Jul-20 16:33N 49°50' W 000°30'1919.3
2014-Jul-20 15:33N 49°32' W 000°21'1514.9
2014-Jul-20 14:33N 49°17' W 000°15'0 0.0
2014-Jul-20 13:33N 49°17' W 000°15'2 2.3
2014-Jul-20 12:33N 49°20' W 000°14'2019.9
2014-Jul-20 11:33N 49°38' W 000°26'1919.3
2014-Jul-20 10:33N 49°56' W 000°36'2019.0
2014-Jul-20 09:31N 50°15' W 000°47'1819.2
2014-Jul-20 08:33N 50°32' W 000°57'1717.1
2014-Jul-20 07:33N 50°48' W 001°07'1 1.0
2014-Jul-20 06:33N 50°49' W 001°06'0 0.1
2014-Jul-20 05:34N 50°49' W 001°06'1212.2
2014-Jul-20 04:33N 50°37' W 000°58'2210.7
2014-Jul-20 02:29N 50°17' W 000°46'1011.2
2014-Jul-20 01:33N 50°06' W 000°43'1111.5
2014-Jul-20 00:33N 49°55' W 000°40'1111.1
2014-Jul-19 23:34N 49°45' W 000°35'1211.9
2014-Jul-19 22:34N 49°34' W 000°28'1312.6
2014-Jul-19 21:33N 49°23' W 000°17'6 6.0
2014-Jul-19 20:33N 49°17' W 000°15'0 0.0
2014-Jul-19 19:33N 49°17' W 000°15'1111.3
2014-Jul-19 18:33N 49°28' W 000°19'1919.5
2014-Jul-19 17:34N 49°46' W 000°29'4119.7
2014-Jul-19 15:28N 50°26' W 000°49'1719.1
2014-Jul-19 14:33N 50°42' W 001°00'8 7.9
2014-Jul-19 13:33N 50°49' W 001°06'0 0.0
2014-Jul-19 12:33N 50°49' W 001°06'5 5.2
2014-Jul-19 11:33N 50°44' W 001°03'2018.7
2014-Jul-19 10:31N 50°26' W 000°50'2019.5
2014-Jul-19 09:30N 50°07' W 000°41'1920.0
2014-Jul-19 08:33N 49°49' W 000°32'2120.9
2014-Jul-19 07:33N 49°30' W 000°20'1312.9
2014-Jul-19 06:33N 49°17' W 000°15'0 0.0
2014-Jul-19 05:33N 49°17' W 000°15'0 0.1
2014-Jul-19 04:33N 49°17' W 000°15'1717.0
2014-Jul-19 03:33N 49°34' W 000°19'1211.5
2014-Jul-19 02:33N 49°45' W 000°24'3114.7
2014-Jul-19 00:26N 50°14' W 000°41'1617.4
2014-Jul-18 23:30N 50°29' W 000°51'1516.0
2014-Jul-18 22:33N 50°43' W 001°01'7 6.5
2014-Jul-18 21:33N 50°49' W 001°06'0 0.0
2014-Jul-18 20:34N 50°49' W 001°06'6 5.6
2014-Jul-18 19:34N 50°43' W 001°03'1717.0
2014-Jul-18 18:33N 50°28' W 000°53'1919.3
2014-Jul-18 17:33N 50°10' W 000°42'2019.8
2014-Jul-18 16:33N 49°51' W 000°30'1919.4
2014-Jul-18 15:33N 49°33' W 000°20'1616.3
2014-Jul-18 14:33N 49°17' W 000°15'0 0.0
2014-Jul-18 13:33N 49°17' W 000°15'2 1.6
2014-Jul-18 12:33N 49°19' W 000°15'2019.6
2014-Jul-18 11:33N 49°38' W 000°24'2020.0
2014-Jul-18 10:33N 49°56' W 000°37'2019.8
2014-Jul-18 09:33N 50°14' W 000°47'2019.7
2014-Jul-18 08:33N 50°33' W 000°56'1716.5
2014-Jul-18 07:34N 50°48' W 001°07'1 0.8
2014-Jul-18 06:33N 50°49' W 001°06'0 0.1
2014-Jul-18 05:34N 50°49' W 001°06'1212.3
2014-Jul-18 04:34N 50°37' W 000°58'1615.8
2014-Jul-18 03:33N 50°23' W 000°50'1211.5
2014-Jul-18 02:33N 50°12' W 000°44'1111.2
2014-Jul-18 01:33N 50°01' W 000°38'1111.2
2014-Jul-18 00:33N 49°50' W 000°34'1110.7
2014-Jul-17 23:34N 49°40' W 000°28'1110.8
2014-Jul-17 22:33N 49°30' W 000°21'1111.5
2014-Jul-17 21:33N 49°20' W 000°14'2 2.3
2014-Jul-17 20:33N 49°17' W 000°15'0 0.0
2014-Jul-17 19:33N 49°17' W 000°15'1212.1
2014-Jul-17 18:33N 49°29' W 000°18'1919.2
2014-Jul-17 17:33N 49°47' W 000°28'1918.6
2014-Jul-17 16:33N 50°05' W 000°38'1918.6
2014-Jul-17 15:33N 50°23' W 000°46'1919.4
2014-Jul-17 14:33N 50°40' W 000°59'10 9.7
2014-Jul-17 13:34N 50°49' W 001°06'0 0.0
2014-Jul-17 12:34N 50°49' W 001°06'6 5.9
2014-Jul-17 11:34N 50°43' W 001°01'1919.1
2014-Jul-17 10:34N 50°26' W 000°51'2120.6
2014-Jul-17 09:34N 50°06' W 000°41'2120.6
2014-Jul-17 08:34N 49°46' W 000°30'2121.0
2014-Jul-17 07:34N 49°27' W 000°18'10 9.9
2014-Jul-17 06:33N 49°17' W 000°15'0 0.0
2014-Jul-17 05:34N 49°17' W 000°15'0 0.1
2014-Jul-17 04:33N 49°17' W 000°15'1514.6
2014-Jul-17 03:33N 49°32' W 000°18'1211.8
2014-Jul-17 02:33N 49°43' W 000°21'1515.1
2014-Jul-17 01:34N 49°58' W 000°27'1717.3
2014-Jul-17 00:34N 50°14' W 000°37'1817.6
2014-Jul-16 23:34N 50°29' W 000°51'1616.2
2014-Jul-16 22:34N 50°44' W 001°02'6 5.5
2014-Jul-16 21:34N 50°49' W 001°06'0 0.0
2014-Jul-16 20:33N 50°49' W 001°06'5 5.2
2014-Jul-16 19:34N 50°44' W 001°03'1918.7
2014-Jul-16 18:34N 50°27' W 000°51'2019.7
2014-Jul-16 17:34N 50°08' W 000°41'2020.3
2014-Jul-16 16:34N 49°49' W 000°30'2020.0
2014-Jul-16 15:34N 49°30' W 000°20'1313.2
2014-Jul-16 14:33N 49°17' W 000°15'0 0.0
2014-Jul-16 13:33N 49°17' W 000°15'0 0.0
2014-Jul-16 12:33N 49°17' W 000°15'0 0.0
2014-Jul-16 11:33N 49°17' W 000°15'0 0.0
2014-Jul-16 10:33N 49°17' W 000°15'0 0.0
2014-Jul-16 09:33N 49°17' W 000°15'0 0.0
2014-Jul-16 08:33N 49°17' W 000°15'0 0.0
2014-Jul-16 07:33N 49°17' W 000°15'0 0.0
2014-Jul-16 06:33N 49°17' W 000°15'0 0.0
2014-Jul-16 05:33N 49°17' W 000°15'1111.4
2014-Jul-16 04:34N 49°29' W 000°18'1110.9
2014-Jul-16 03:33N 49°39' W 000°24'1111.0
2014-Jul-16 02:33N 49°49' W 000°30'1211.7
2014-Jul-16 01:33N 49°60' W 000°37'1413.7
2014-Jul-16 00:34N 50°13' W 000°45'1616.1
2014-Jul-15 23:34N 50°28' W 000°52'1615.7
2014-Jul-15 22:33N 50°43' W 001°00'7 6.8
2014-Jul-15 21:33N 50°49' W 001°06'0 0.0
2014-Jul-15 20:33N 50°49' W 001°06'4 4.3
2014-Jul-15 19:34N 50°45' W 001°05'1918.6
2014-Jul-15 18:34N 50°29' W 000°49'2019.8
2014-Jul-15 17:34N 50°10' W 000°40'2020.3
2014-Jul-15 16:34N 49°50' W 000°31'2020.4
2014-Jul-15 15:33N 49°31' W 000°20'1414.2
2014-Jul-15 14:34N 49°17' W 000°15'0 0.0
2014-Jul-15 13:34N 49°17' W 000°15'2 1.6
2014-Jul-15 12:34N 49°19' W 000°15'2019.8
2014-Jul-15 11:34N 49°38' W 000°24'1919.4
2014-Jul-15 10:33N 49°57' W 000°31'2019.8
2014-Jul-15 09:34N 50°15' W 000°42'1919.4
2014-Jul-15 08:34N 50°33' W 000°52'1716.9
2014-Jul-15 07:34N 50°48' W 001°07'1 1.2
2014-Jul-15 06:33N 50°49' W 001°06'0 0.4
2014-Jul-15 05:33N 50°49' W 001°06'1212.3
2014-Jul-15 04:33N 50°37' W 000°58'1111.2
2014-Jul-15 03:33N 50°27' W 000°53'1111.2
2014-Jul-15 02:33N 50°16' W 000°46'1511.7
2014-Jul-15 01:15N 50°02' W 000°38'811.6
2014-Jul-15 00:33N 49°55' W 000°33'1111.3
2014-Jul-14 23:33N 49°44' W 000°27'1111.1
2014-Jul-14 22:33N 49°34' W 000°21'1110.9
2014-Jul-14 21:33N 49°24' W 000°14'6 6.3
2014-Jul-14 20:33N 49°17' W 000°15'0 0.0
2014-Jul-14 19:33N 49°17' W 000°15'1111.3
2014-Jul-14 18:33N 49°28' W 000°17'2019.8
2014-Jul-14 17:34N 49°46' W 000°31'2020.0
2014-Jul-14 16:33N 50°06' W 000°39'2020.4
2014-Jul-14 15:33N 50°25' W 000°50'2020.0
2014-Jul-14 14:33N 50°43' W 001°02'6 6.1
2014-Jul-14 13:33N 50°49' W 001°06'0 0.0
2014-Jul-14 12:34N 50°49' W 001°06'3 3.0
2014-Jul-14 11:34N 50°46' W 001°05'2019.8
2014-Jul-14 10:34N 50°28' W 000°52'4019.9
2014-Jul-14 08:34N 49°50' W 000°31'1919.2
2014-Jul-14 07:33N 49°32' W 000°21'1515.4
2014-Jul-14 06:34N 49°17' W 000°15'0 0.0
2014-Jul-14 05:34N 49°17' W 000°15'0 0.1
2014-Jul-14 04:33N 49°17' W 000°15'  

Dump ship's entire track history